createdAt,value
2019-01-17T00:03:18.009Z,6.83
2019-01-17T00:08:34.276Z,14.40
2019-01-17T00:13:54.590Z,7.17
2019-01-17T00:19:17.796Z,8.83
2019-01-17T00:24:42.891Z,9.77
2019-01-17T00:30:08.915Z,12.67
2019-01-17T00:35:35.571Z,23.27
2019-01-17T00:40:50.272Z,12.50
2019-01-17T00:46:16.625Z,7.63
2019-01-17T00:51:43.220Z,7.20
2019-01-17T00:57:06.877Z,10.90
2019-01-17T01:02:36.800Z,5.43
2019-01-17T01:08:07.521Z,7.07
2019-01-17T01:13:23.409Z,6.03
2019-01-17T01:18:43.835Z,7.07
2019-01-17T01:24:01.958Z,6.30
2019-01-17T01:29:20.255Z,7.70
2019-01-17T01:34:35.082Z,7.40
2019-01-17T01:40:05.629Z,7.00
2019-01-17T01:45:22.412Z,7.50
2019-01-17T01:50:44.587Z,5.37
2019-01-17T01:55:48.658Z,5.03
2019-01-17T02:00:52.711Z,8.60
2019-01-17T02:05:57.185Z,9.17
2019-01-17T02:11:01.251Z,5.17
2019-01-17T02:16:05.327Z,6.30
2019-01-17T02:21:10.571Z,5.70
2019-01-17T02:26:14.631Z,5.23
2019-01-17T02:31:18.706Z,4.93
2019-01-17T02:36:23.430Z,5.97
2019-01-17T02:41:28.045Z,6.40
2019-01-17T02:46:32.965Z,4.70
2019-01-17T02:51:37.006Z,5.00
2019-01-17T02:56:42.148Z,4.97
2019-01-17T03:01:46.072Z,6.23
2019-01-17T03:06:50.315Z,4.27
2019-01-17T03:11:55.155Z,4.20
2019-01-17T03:17:00.357Z,3.80
2019-01-17T03:22:04.511Z,3.70
2019-01-17T03:27:09.467Z,4.00
2019-01-17T03:32:13.513Z,4.30
2019-01-17T03:37:18.359Z,4.00
2019-01-17T03:42:22.981Z,4.83
2019-01-17T03:47:26.976Z,3.27
2019-01-17T03:52:31.095Z,3.97
2019-01-17T03:57:35.132Z,4.30
2019-01-17T04:02:39.184Z,3.70
2019-01-17T04:07:43.722Z,3.80
2019-01-17T04:12:48.535Z,3.50
2019-01-17T04:17:53.244Z,3.77
2019-01-17T04:22:57.396Z,3.23
2019-01-17T04:28:01.287Z,3.67
2019-01-17T04:33:06.099Z,4.17
2019-01-17T04:38:10.137Z,4.20
2019-01-17T04:43:14.045Z,2.83
2019-01-17T04:48:18.401Z,3.90
2019-01-17T04:53:22.509Z,3.10
2019-01-17T04:58:28.345Z,3.90
2019-01-17T05:03:32.559Z,3.60
2019-01-17T05:08:36.611Z,4.27
2019-01-17T05:13:40.940Z,3.90
2019-01-17T05:18:46.959Z,8.47
2019-01-17T05:23:50.940Z,4.77
2019-01-17T05:28:55.289Z,4.60
2019-01-17T05:33:59.312Z,4.93
2019-01-17T05:39:04.540Z,5.00
2019-01-17T05:44:08.559Z,3.37
2019-01-17T05:49:12.595Z,3.37
2019-01-17T05:54:18.003Z,4.30
2019-01-17T05:59:23.034Z,3.00
2019-01-17T06:04:27.171Z,4.83
2019-01-17T06:09:31.064Z,3.43
2019-01-17T06:14:35.019Z,4.93
2019-01-17T06:19:39.063Z,5.87
2019-01-17T06:24:42.956Z,6.40
2019-01-17T06:29:47.426Z,4.00
2019-01-17T06:34:52.035Z,7.60
2019-01-17T06:39:56.068Z,4.93
2019-01-17T06:45:00.049Z,5.07
2019-01-17T06:50:04.764Z,6.10
2019-01-17T06:55:08.914Z,8.63
2019-01-17T07:00:14.716Z,8.77
2019-01-17T07:05:19.039Z,8.00
2019-01-17T07:10:23.243Z,7.93
2019-01-17T07:15:28.290Z,8.83
2019-01-17T07:20:32.368Z,9.17
2019-01-17T07:25:40.977Z,9.23
2019-01-17T07:30:42.996Z,9.73
2019-01-17T07:35:47.722Z,11.20
2019-01-17T07:40:51.735Z,11.43
2019-01-17T07:45:56.251Z,11.07
2019-01-17T07:51:00.315Z,10.97
2019-01-17T07:56:04.476Z,10.13
2019-01-17T08:01:14.849Z,10.40
2019-01-17T08:06:14.276Z,11.00
2019-01-17T08:11:18.307Z,11.60
2019-01-17T08:16:22.343Z,14.20
2019-01-17T08:21:28.317Z,16.07
2019-01-17T08:26:32.347Z,17.10
2019-01-17T08:31:37.335Z,14.63
2019-01-17T08:36:42.363Z,17.10
2019-01-17T08:41:46.307Z,18.33
2019-01-17T08:46:50.343Z,18.03
2019-01-17T08:51:54.410Z,12.23
2019-01-17T08:56:59.054Z,13.30
2019-01-17T09:02:03.011Z,17.83
2019-01-17T09:07:07.004Z,15.70
2019-01-17T09:12:10.963Z,15.33
2019-01-17T09:17:14.987Z,13.63
2019-01-17T09:22:18.937Z,14.50
2019-01-17T09:27:23.064Z,13.00
2019-01-17T09:32:28.391Z,19.43
2019-01-17T09:37:33.562Z,15.00
2019-01-17T09:42:37.681Z,16.53
2019-01-17T09:47:41.898Z,18.63
2019-01-17T09:52:46.203Z,15.10
2019-01-17T09:57:50.255Z,15.93
2019-01-17T10:02:54.295Z,10.53
2019-01-17T10:07:58.427Z,14.30
2019-01-17T10:13:02.383Z,14.00
2019-01-17T10:19:12.163Z,10.40
2019-01-17T10:25:09.403Z,10.30
2019-01-17T10:30:52.035Z,14.70
2019-01-17T10:36:19.823Z,9.30
2019-01-17T10:42:10.139Z,8.37
2019-01-17T10:47:50.015Z,7.47
2019-01-17T10:53:17.145Z,7.80
2019-01-17T10:58:36.979Z,11.20
2019-01-17T11:04:16.681Z,7.13
2019-01-17T11:09:44.406Z,7.73
2019-01-17T11:14:54.815Z,9.57
2019-01-17T11:20:28.152Z,9.70
2019-01-17T11:26:12.534Z,10.77
2019-01-17T11:31:37.621Z,5.23
2019-01-17T11:37:21.743Z,5.40
2019-01-17T11:42:48.172Z,6.47
2019-01-17T11:48:22.140Z,6.80
2019-01-17T11:53:53.399Z,5.13
2019-01-17T11:59:06.875Z,4.83
2019-01-17T12:04:32.575Z,5.17
2019-01-17T12:09:36.519Z,3.70
2019-01-17T12:14:40.397Z,4.07
2019-01-17T12:19:44.959Z,3.30
2019-01-17T12:24:48.836Z,6.80
2019-01-17T12:29:52.903Z,3.00
2019-01-17T12:34:56.903Z,3.60
2019-01-17T12:40:00.795Z,2.97
2019-01-17T12:45:05.704Z,3.80
2019-01-17T12:50:15.116Z,2.77
2019-01-17T12:55:19.132Z,3.70
2019-01-17T13:00:24.647Z,6.90
2019-01-17T13:05:29.924Z,2.43
2019-01-17T13:10:33.888Z,2.13
2019-01-17T13:15:38.033Z,1.50
2019-01-17T13:20:42.167Z,1.70
2019-01-17T13:25:46.202Z,1.37
2019-01-17T13:30:51.024Z,2.10
2019-01-17T13:35:54.962Z,1.47
2019-01-17T13:40:59.228Z,2.03
2019-01-17T13:46:03.344Z,2.10
2019-01-17T13:51:08.666Z,1.80
2019-01-17T13:56:12.675Z,1.90
2019-01-17T14:01:16.769Z,2.40
2019-01-17T14:06:20.735Z,2.17
2019-01-17T14:11:24.686Z,2.63
2019-01-17T14:16:28.727Z,2.70
2019-01-17T14:21:32.755Z,4.27
2019-01-17T14:26:36.799Z,3.53
2019-01-17T14:31:40.701Z,2.43
2019-01-17T14:36:44.792Z,4.37
2019-01-17T14:41:48.772Z,5.53
2019-01-17T14:46:52.710Z,7.67
2019-01-17T14:51:56.937Z,4.17
2019-01-17T14:57:00.904Z,3.70
2019-01-17T15:02:05.031Z,4.00
2019-01-17T15:07:09.059Z,4.00
2019-01-17T15:12:13.100Z,3.07
2019-01-17T15:17:16.992Z,2.90
2019-01-17T15:22:20.960Z,3.20
2019-01-17T15:27:27.364Z,5.53
2019-01-17T15:32:30.776Z,2.83
2019-01-17T15:37:34.745Z,2.73
2019-01-17T15:42:39.971Z,2.10
2019-01-17T15:47:44.234Z,3.00
2019-01-17T15:52:48.335Z,2.80
2019-01-17T15:57:52.311Z,2.80
2019-01-17T16:02:57.422Z,6.47
2019-01-17T16:08:01.414Z,3.07
2019-01-17T16:13:05.525Z,4.93
2019-01-17T16:18:09.411Z,3.90
2019-01-17T16:23:14.118Z,4.27
2019-01-17T16:28:18.142Z,5.60
2019-01-17T16:33:22.087Z,6.43
2019-01-17T16:38:26.327Z,4.97
2019-01-17T16:43:30.223Z,7.23
2019-01-17T16:48:34.195Z,6.90
2019-01-17T16:53:38.289Z,12.30
2019-01-17T16:58:42.275Z,6.03
2019-01-17T17:03:46.319Z,7.13
2019-01-17T17:08:50.270Z,9.00
2019-01-17T17:13:54.224Z,4.33
2019-01-17T17:18:58.287Z,5.73
2019-01-17T17:24:02.256Z,3.87
2019-01-17T17:29:06.811Z,7.37
2019-01-17T17:34:11.588Z,4.03
2019-01-17T17:39:15.723Z,5.77
2019-01-17T17:44:19.606Z,6.70
2019-01-17T17:49:23.739Z,6.63
2019-01-17T17:54:27.735Z,6.13
2019-01-17T17:59:31.772Z,4.10
2019-01-17T18:04:36.383Z,12.13
2019-01-17T18:09:40.336Z,8.17
2019-01-17T18:14:44.255Z,7.07
2019-01-17T18:19:48.227Z,8.10
2019-01-17T18:24:52.259Z,9.27
2019-01-17T18:29:56.312Z,8.60
2019-01-17T18:35:00.295Z,9.40
2019-01-17T18:40:05.211Z,10.50
2019-01-17T18:45:11.543Z,6.23
2019-01-17T18:50:18.851Z,9.10
2019-01-17T18:55:22.926Z,7.63
2019-01-17T19:00:31.723Z,7.57
2019-01-17T19:05:35.756Z,7.37
2019-01-17T19:10:39.735Z,10.33
2019-01-17T19:15:43.807Z,8.67
2019-01-17T19:20:47.779Z,11.50
2019-01-17T19:25:51.675Z,9.27
2019-01-17T19:30:55.703Z,4.97
2019-01-17T19:36:00.050Z,4.83
2019-01-17T19:41:04.148Z,4.50
2019-01-17T19:46:08.307Z,10.40
2019-01-17T19:51:12.359Z,6.20
2019-01-17T19:56:16.386Z,3.27
2019-01-17T20:01:20.451Z,7.10
2019-01-17T20:06:24.503Z,7.30
2019-01-17T20:11:28.547Z,7.93
2019-01-17T20:16:32.627Z,6.03
2019-01-17T20:21:36.720Z,8.93
2019-01-17T20:26:40.696Z,5.70
2019-01-17T20:31:44.820Z,5.27
2019-01-17T20:36:48.987Z,5.40
2019-01-17T20:41:52.872Z,4.80
2019-01-17T20:46:56.923Z,4.03
2019-01-17T20:52:02.007Z,6.23
2019-01-17T20:57:07.515Z,4.60
2019-01-17T21:02:19.614Z,5.13
2019-01-17T21:07:23.634Z,6.53
2019-01-17T21:12:27.616Z,7.37
2019-01-17T21:17:31.639Z,4.47
2019-01-17T21:22:35.631Z,5.60
2019-01-17T21:27:41.302Z,6.00
2019-01-17T21:32:45.562Z,7.63
2019-01-17T21:37:51.451Z,6.10
2019-01-17T21:43:00.092Z,6.90
2019-01-17T21:48:05.715Z,6.77
2019-01-17T21:53:09.779Z,12.53
2019-01-17T21:58:14.025Z,8.23
2019-01-17T22:03:17.940Z,8.13
2019-01-17T22:08:22.890Z,9.30
2019-01-17T22:13:27.017Z,8.27
2019-01-17T22:18:30.980Z,6.87
2019-01-17T22:23:35.033Z,12.00
2019-01-17T22:28:39.851Z,8.00
2019-01-17T22:33:43.852Z,10.90
2019-01-17T22:38:47.820Z,8.30
2019-01-17T22:43:52.095Z,6.83
2019-01-17T22:48:56.139Z,9.33
2019-01-17T22:54:00.979Z,6.33
2019-01-17T22:59:09.222Z,9.10
2019-01-17T23:04:10.661Z,5.57
2019-01-17T23:09:14.981Z,6.07
2019-01-17T23:14:19.071Z,9.37
2019-01-17T23:19:23.146Z,12.23
2019-01-17T23:24:27.251Z,4.93
2019-01-17T23:29:31.300Z,5.93
2019-01-17T23:34:35.591Z,11.97
2019-01-17T23:39:39.638Z,6.50
2019-01-17T23:44:43.610Z,10.50
2019-01-17T23:49:47.784Z,6.80
2019-01-17T23:54:52.797Z,10.63
2019-01-17T23:59:56.762Z,6.07
